Time;durP1;ratioP1;P1;durP2;ratioP2;P2;SDS_P1;SDS_P2;PMS_P1;PMS_P2;Temp;Humidity;BMP_temperature;BMP_pressure;BME280_temperature;BME280_humidity;BME280_pressure;Samples;Min_cycle;Max_cycle;Signal;HPM_P1;HPM_P2
2021/06/13 07:32:40;;;;;;;5.25;3.10;;;20.80;99.90;;;;;;5218102;23;20043;-83
2021/06/13 07:35:09;;;;;;;6.53;3.33;;;20.90;99.90;;;;;;4949085;28;20106;-84
2021/06/13 07:37:36;;;;;;;6.10;3.50;;;21.10;99.90;;;;;;4956044;28;20145;-81
2021/06/13 07:40:05;;;;;;;6.00;2.67;;;21.20;99.90;;;;;;4984383;28;20583;-83
2021/06/13 07:42:32;;;;;;;6.28;3.35;;;21.30;99.90;;;;;;4954321;28;20043;-84
2021/06/13 07:45:00;;;;;;;7.50;3.28;;;21.40;99.90;;;;;;4969930;28;20121;-81
2021/06/13 07:47:29;;;;;;;4.82;2.80;;;21.50;99.90;;;;;;4969992;28;20100;-85
2021/06/13 07:49:57;;;;;;;4.43;2.83;;;21.60;99.90;;;;;;4947642;28;20039;-81
2021/06/13 07:52:24;;;;;;;4.53;3.15;;;21.80;99.90;;;;;;4951579;28;20090;-82
2021/06/13 07:54:51;;;;;;;7.55;3.20;;;21.90;99.90;;;;;;4941526;29;20051;-83
2021/06/13 07:57:18;;;;;;;5.32;3.33;;;22.00;99.90;;;;;;4955041;28;20083;-81
2021/06/13 07:59:45;;;;;;;5.15;3.00;;;22.20;99.90;;;;;;4951880;28;20513;-83
2021/06/13 08:02:12;;;;;;;4.30;3.13;;;22.30;99.90;;;;;;4968319;28;22432;-82
2021/06/13 08:04:44;;;;;;;2.95;2.58;;;22.40;99.90;;;;;;4955133;28;20298;-82
2021/06/13 08:07:11;;;;;;;3.78;3.00;;;22.50;99.90;;;;;;4957409;28;20546;-83
2021/06/13 08:09:52;;;;;;;4.20;3.22;;;22.60;99.90;;;;;;4965379;28;20755;-81
2021/06/13 08:12:19;;;;;;;4.03;2.70;;;22.70;99.90;;;;;;4945220;28;20083;-81
2021/06/13 08:14:46;;;;;;;3.58;2.70;;;22.90;99.90;;;;;;4948109;28;20054;-82
2021/06/13 08:17:13;;;;;;;3.42;2.75;;;23.00;99.90;;;;;;4970179;28;20074;-82
2021/06/13 08:19:40;;;;;;;3.83;2.95;;;23.10;99.90;;;;;;4954810;28;20106;-82
2021/06/13 08:22:26;;;;;;;4.70;2.58;;;23.10;99.90;;;;;;4951633;28;20051;-84
2021/06/13 08:24:53;;;;;;;3.33;3.03;;;23.20;99.90;;;;;;4964544;28;20051;-83
2021/06/13 08:27:20;;;;;;;5.78;2.45;;;23.30;99.90;;;;;;4950009;28;20067;-83
2021/06/13 08:29:47;;;;;;;5.35;2.65;;;23.40;99.90;;;;;;4940891;28;20051;-82
2021/06/13 08:32:14;;;;;;;3.80;3.00;;;23.50;99.90;;;;;;4951856;28;20051;-82
2021/06/13 08:34:41;;;;;;;3.58;2.67;;;23.60;99.90;;;;;;4972386;28;20070;-82
2021/06/13 08:37:08;;;;;;;4.40;3.08;;;23.70;99.90;;;;;;4975391;28;20085;-81
2021/06/13 08:39:34;;;;;;;3.72;2.85;;;23.80;99.90;;;;;;4975690;28;20093;-83
2021/06/13 08:42:02;;;;;;;3.58;2.55;;;23.90;99.90;;;;;;4972287;28;20116;-82
2021/06/13 08:44:29;;;;;;;3.20;2.38;;;24.00;99.90;;;;;;4969105;28;20377;-85
2021/06/13 08:46:58;;;;;;;2.88;2.53;;;24.10;99.90;;;;;;4988307;28;20505;-82
2021/06/13 08:49:25;;;;;;;3.08;2.45;;;24.10;99.90;;;;;;4989164;28;20046;-81
2021/06/13 08:51:53;;;;;;;3.67;2.83;;;24.20;99.90;;;;;;4988319;28;20051;-83
2021/06/13 08:54:21;;;;;;;4.28;3.20;;;24.30;99.90;;;;;;4987242;28;20464;-83
2021/06/13 08:56:48;;;;;;;3.42;2.42;;;24.40;99.90;;;;;;4977479;28;20054;-83
2021/06/13 08:59:16;;;;;;;3.80;2.78;;;24.40;99.90;;;;;;4973661;28;20054;-83
2021/06/13 09:01:42;;;;;;;3.47;2.55;;;24.40;99.90;;;;;;4974021;28;20128;-83
2021/06/13 09:04:09;;;;;;;4.15;2.67;;;24.50;99.90;;;;;;4974207;28;20484;-84
2021/06/13 09:06:36;;;;;;;3.17;2.60;;;24.60;99.90;;;;;;4962224;28;20146;-82
2021/06/13 09:09:20;;;;;;;4.43;2.58;;;24.70;99.90;;;;;;4957997;28;20093;-82
2021/06/13 09:12:01;;;;;;;7.15;2.70;;;24.80;99.90;;;;;;4962074;28;20525;-83
2021/06/13 09:14:28;;;;;;;3.47;2.58;;;24.80;99.90;;;;;;4943885;28;20055;-82
2021/06/13 09:16:56;;;;;;;3.07;2.60;;;24.90;99.90;;;;;;4945535;28;20053;-82
2021/06/13 09:19:23;;;;;;;3.83;2.63;;;25.00;99.90;;;;;;4959044;28;20192;-83
2021/06/13 09:21:50;;;;;;;5.10;2.45;;;25.10;99.90;;;;;;4958086;28;20047;-81
2021/06/13 09:24:25;;;;;;;2.50;2.30;;;25.10;99.90;;;;;;4972520;28;20579;-83
2021/06/13 09:26:55;;;;;;;4.60;2.65;;;25.20;99.90;;;;;;4949728;28;20059;-82
2021/06/13 09:29:22;;;;;;;3.35;2.55;;;25.30;99.90;;;;;;4963883;28;20114;-84
2021/06/13 09:32:07;;;;;;;4.95;2.67;;;25.40;99.90;;;;;;4970597;28;20452;-84
2021/06/13 09:34:34;;;;;;;2.30;2.10;;;25.40;99.90;;;;;;4961151;28;20556;-82
2021/06/13 09:37:03;;;;;;;4.15;2.50;;;25.50;99.90;;;;;;4972288;28;20987;-84
2021/06/13 09:39:31;;;;;;;3.85;2.30;;;25.60;99.90;;;;;;4990217;28;20043;-82
2021/06/13 09:42:09;;;;;;;2.40;2.20;;;25.60;99.90;;;;;;4963103;28;20105;-86
2021/06/13 09:44:36;;;;;;;3.97;2.92;;;25.70;99.90;;;;;;4989341;28;20046;-85
2021/06/13 09:47:04;;;;;;;2.63;2.42;;;25.70;99.90;;;;;;4983624;28;20055;-84
2021/06/13 09:49:46;;;;;;;2.58;2.22;;;25.80;99.90;;;;;;4967167;28;20559;-83
2021/06/13 09:52:13;;;;;;;3.65;2.35;;;25.80;99.90;;;;;;4969670;28;20584;-84
2021/06/13 09:54:40;;;;;;;3.90;2.40;;;25.90;99.90;;;;;;4982292;28;20057;-84
2021/06/13 09:57:09;;;;;;;4.07;2.60;;;26.00;99.90;;;;;;4984103;28;20167;-83
2021/06/13 09:59:36;;;;;;;2.90;2.42;;;26.00;99.90;;;;;;4972001;28;20063;-83
2021/06/13 10:02:09;;;;;;;5.10;2.72;;;26.00;99.90;;;;;;4967947;28;20043;-83
2021/06/13 10:04:39;;;;;;;2.75;2.53;;;26.00;99.90;;;;;;4945529;28;20125;-82
2021/06/13 10:07:19;;;;;;;5.03;2.80;;;26.10;99.90;;;;;;4970645;28;20098;-83
2021/06/13 10:09:51;;;;;;;3.63;2.85;;;26.10;99.90;;;;;;4957407;28;20055;-84
2021/06/13 10:12:22;;;;;;;2.97;2.50;;;26.20;99.90;;;;;;4961294;28;20481;-84
2021/06/13 10:14:51;;;;;;;3.05;2.75;;;26.20;99.90;;;;;;4946711;28;20078;-83
2021/06/13 10:17:30;;;;;;;3.38;2.70;;;26.30;99.90;;;;;;4966374;28;20197;-84
2021/06/13 10:19:57;;;;;;;6.45;2.80;;;26.40;99.90;;;;;;4967228;28;20067;-85
2021/06/13 10:22:25;;;;;;;3.30;2.60;;;26.40;99.90;;;;;;4967316;28;20553;-84
2021/06/13 10:24:54;;;;;;;3.65;2.67;;;26.40;99.90;;;;;;4968815;28;20061;-84
2021/06/13 10:27:21;;;;;;;7.55;2.40;;;26.50;99.90;;;;;;4993587;28;20100;-84
2021/06/13 10:29:50;;;;;;;2.75;2.20;;;26.50;99.90;;;;;;4993464;28;20566;-84
2021/06/13 10:32:20;;;;;;;3.63;2.17;;;26.60;99.90;;;;;;4979676;28;20054;-85
2021/06/13 10:34:49;;;;;;;3.97;2.33;;;26.70;99.90;;;;;;4979788;28;20514;-84
2021/06/13 10:37:17;;;;;;;2.60;2.28;;;26.70;99.90;;;;;;4974719;28;20050;-84
2021/06/13 10:39:48;;;;;;;3.25;2.28;;;26.80;99.90;;;;;;4961869;28;20106;-84
2021/06/13 10:42:17;;;;;;;3.72;2.50;;;26.80;99.90;;;;;;4958025;28;20470;-84
2021/06/13 10:44:52;;;;;;;3.05;2.75;;;26.80;99.90;;;;;;4983083;28;20102;-85
2021/06/13 10:47:21;;;;;;;3.47;2.33;;;26.90;99.90;;;;;;4959690;28;20398;-85
2021/06/13 10:50:00;;;;;;;2.85;2.28;;;26.90;99.90;;;;;;4979750;28;20130;-84
2021/06/13 10:52:29;;;;;;;4.60;2.50;;;26.90;99.90;;;;;;4969388;28;20092;-84
2021/06/13 10:54:58;;;;;;;3.63;2.40;;;27.00;99.90;;;;;;4969177;28;20165;-83
2021/06/13 10:57:44;;;;;;;4.30;2.10;;;27.00;99.90;;;;;;4948126;28;20454;-83
2021/06/13 11:00:20;;;;;;;3.10;2.03;;;27.10;99.90;;;;;;4959633;28;20050;-83
2021/06/13 11:02:59;;;;;;;5.10;2.30;;;27.10;99.90;;;;;;4962448;28;20413;-83
2021/06/13 11:05:44;;;;;;;3.88;2.00;;;27.20;99.90;;;;;;4982234;28;20129;-84
2021/06/13 11:08:11;;;;;;;2.72;1.85;;;27.20;99.80;;;;;;4980755;28;20145;-84
2021/06/13 11:10:39;;;;;;;2.50;2.03;;;27.20;99.80;;;;;;4984351;28;20526;-85
2021/06/13 11:13:14;;;;;;;2.28;2.08;;;27.20;99.80;;;;;;4977875;28;20050;-84
2021/06/13 11:15:45;;;;;;;3.17;2.00;;;27.30;99.90;;;;;;4983831;28;20100;-85
2021/06/13 11:18:15;;;;;;;4.78;2.20;;;27.30;99.80;;;;;;4995070;28;20065;-83
2021/06/13 11:20:49;;;;;;;2.58;1.95;;;27.30;99.80;;;;;;4979127;28;20054;-83
2021/06/13 11:23:21;;;;;;;2.30;2.00;;;27.30;99.40;;;;;;4971213;28;20445;-83
2021/06/13 11:25:54;;;;;;;2.53;2.00;;;27.30;98.90;;;;;;4986610;28;20108;-88
2021/06/13 11:28:25;;;;;;;2.80;2.00;;;27.40;98.60;;;;;;4968516;28;20118;-87
2021/06/13 11:30:53;;;;;;;3.53;1.95;;;27.40;98.60;;;;;;4983495;28;20417;-84
2021/06/13 11:33:47;;;;;;;3.20;2.78;;;27.40;98.50;;;;;;5004938;28;20058;-84
2021/06/13 11:36:17;;;;;;;2.20;2.00;;;27.40;98.50;;;;;;4971593;28;20097;-89
2021/06/13 11:38:49;;;;;;;2.05;1.80;;;27.50;98.50;;;;;;4974794;28;20051;-84
2021/06/13 11:41:26;;;;;;;2.53;1.90;;;27.50;98.00;;;;;;4965039;28;20050;-84
2021/06/13 11:43:54;;;;;;;3.13;2.70;;;27.50;97.70;;;;;;4949675;28;20054;-85
2021/06/13 11:46:34;;;;;;;3.78;1.85;;;27.60;98.00;;;;;;4968853;28;20101;-86
2021/06/13 11:49:03;;;;;;;2.10;1.90;;;27.70;98.20;;;;;;4972961;28;20050;-85
2021/06/13 11:51:31;;;;;;;3.17;2.33;;;27.70;98.10;;;;;;4991903;28;20113;-85
2021/06/13 11:53:59;;;;;;;3.57;2.17;;;27.70;98.10;;;;;;4972572;28;20116;-85
2021/06/13 11:56:35;;;;;;;2.65;2.22;;;27.70;98.00;;;;;;4976695;28;20050;-85
2021/06/13 11:59:19;;;;;;;24.98;20.45;;;27.80;98.00;;;;;;4988716;28;20144;-84
2021/06/13 12:02:05;;;;;;;4.90;3.90;;;27.80;98.30;;;;;;4960332;28;20047;-83
2021/06/13 12:04:33;;;;;;;5.50;4.60;;;27.80;98.00;;;;;;4973276;28;20498;-83
2021/06/13 12:07:22;;;;;;;4.47;3.50;;;27.90;98.10;;;;;;4990434;28;20047;-84
2021/06/13 12:09:49;;;;;;;8.18;5.80;;;27.90;98.10;;;;;;4965661;28;20058;-83
2021/06/13 12:12:21;;;;;;;5.72;3.17;;;28.00;98.50;;;;;;4975123;28;20059;-83
2021/06/13 12:14:49;;;;;;;5.20;2.85;;;28.00;98.60;;;;;;4973121;28;20111;-85
2021/06/13 12:17:19;;;;;;;4.47;2.70;;;28.00;98.80;;;;;;4976538;28;20090;-83
2021/06/13 12:19:55;;;;;;;4.20;2.67;;;28.10;99.00;;;;;;4980463;28;20050;-83
2021/06/13 12:23:01;;;;;;;2.85;2.20;;;28.10;98.90;;;;;;4966870;28;20498;-86
2021/06/13 12:28:14;;;;;;;2.80;2.25;;;28.10;98.50;;;;;;4988478;28;20053;-84
2021/06/13 12:30:43;;;;;;;4.30;2.50;;;28.10;98.20;;;;;;4990450;28;20113;-84
2021/06/13 12:33:13;;;;;;;2.63;2.42;;;28.10;98.10;;;;;;4974755;28;20054;-84
2021/06/13 12:35:48;;;;;;;2.75;2.53;;;28.10;97.80;;;;;;4965505;28;20046;-84
2021/06/13 12:38:24;;;;;;;2.50;2.30;;;28.10;97.40;;;;;;4973980;28;20184;-84
2021/06/13 12:40:53;;;;;;;3.60;2.20;;;28.10;97.00;;;;;;4992876;28;20441;-84
2021/06/13 12:43:43;;;;;;;3.38;2.15;;;28.10;96.80;;;;;;4970375;28;20584;-85
2021/06/13 12:46:11;;;;;;;3.55;2.40;;;28.20;95.90;;;;;;4970461;28;20516;-84
2021/06/13 12:48:39;;;;;;;4.32;2.33;;;28.00;96.10;;;;;;4972814;28;20051;-84
2021/06/13 12:51:10;;;;;;;3.80;2.20;;;28.00;96.10;;;;;;4973283;28;20425;-85
2021/06/13 12:53:45;;;;;;;3.28;2.20;;;28.00;96.40;;;;;;4959450;28;20055;-85
2021/06/13 12:56:30;;;;;;;2.10;1.90;;;28.10;96.10;;;;;;4958546;28;20126;-87
2021/06/13 12:58:58;;;;;;;3.35;2.30;;;28.20;96.00;;;;;;4990437;28;20112;-84
2021/06/13 13:01:25;;;;;;;3.03;2.30;;;28.30;95.80;;;;;;4959995;28;20055;-87
2021/06/13 13:03:52;;;;;;;2.20;2.00;;;28.30;95.30;;;;;;4975876;28;20054;-86
2021/06/13 13:06:19;;;;;;;2.97;2.08;;;28.30;94.90;;;;;;4993900;28;20047;-83
2021/06/13 13:08:48;;;;;;;2.00;1.80;;;28.40;94.10;;;;;;4958625;28;20081;-84
2021/06/13 13:11:28;;;;;;;2.83;1.92;;;28.40;94.00;;;;;;4965034;28;20101;-85
2021/06/13 13:13:58;;;;;;;3.22;2.50;;;28.40;93.70;;;;;;4972755;28;20066;-85
2021/06/13 13:16:30;;;;;;;4.05;2.10;;;28.40;93.70;;;;;;4974820;28;20050;-85
2021/06/13 13:18:58;;;;;;;2.20;1.98;;;28.40;93.60;;;;;;4972184;28;20050;-88
2021/06/13 13:21:32;;;;;;;2.53;2.00;;;28.50;93.80;;;;;;4962865;28;20055;-87
2021/06/13 13:24:00;;;;;;;3.90;3.28;;;28.50;93.70;;;;;;4960039;28;20144;-85
2021/06/13 13:26:28;;;;;;;2.40;2.20;;;28.60;93.90;;;;;;4982509;28;20473;-85
2021/06/13 13:28:56;;;;;;;2.30;2.10;;;28.60;93.70;;;;;;4976980;28;20062;-84
2021/06/13 13:31:25;;;;;;;9.23;7.00;;;28.70;93.60;;;;;;4967825;28;20078;-86
2021/06/13 13:34:06;;;;;;;4.63;2.95;;;28.70;93.60;;;;;;4979486;28;20830;-87
2021/06/13 13:36:35;;;;;;;2.55;2.13;;;28.80;93.50;;;;;;4960649;28;20047;-85
2021/06/13 13:39:16;;;;;;;;;;;28.80;93.70;;;;;;4968429;28;20051;-83
2021/06/13 13:42:03;;;;;;;3.15;2.30;;;28.80;92.90;;;;;;4950203;28;19929;-84
2021/06/13 13:44:31;;;;;;;3.88;2.55;;;28.80;94.00;;;;;;4971962;28;20136;-83
2021/06/13 13:47:20;;;;;;;;;;;28.80;94.10;;;;;;4957989;28;20078;-84
2021/06/13 13:49:47;;;;;;;2.20;1.88;;;28.80;94.00;;;;;;4978527;28;20281;-84
2021/06/13 13:52:22;;;;;;;3.28;1.95;;;28.80;93.90;;;;;;4955510;28;20050;-85
2021/06/13 13:55:03;;;;;;;3.58;2.20;;;28.80;93.30;;;;;;4962105;28;20061;-86
2021/06/13 13:57:47;;;;;;;3.22;1.85;;;28.80;92.90;;;;;;4972500;28;20046;-83
2021/06/13 14:00:15;;;;;;;2.40;2.00;;;28.80;92.70;;;;;;4966843;28;20142;-84
2021/06/13 14:02:42;;;;;;;2.70;2.25;;;28.90;93.10;;;;;;4949474;28;20109;-84
2021/06/13 14:05:09;;;;;;;2.53;2.10;;;28.90;93.80;;;;;;4955285;28;20051;-83
2021/06/13 14:07:36;;;;;;;2.72;2.08;;;28.90;94.50;;;;;;4955727;28;20089;-84
2021/06/13 14:10:03;;;;;;;3.33;2.40;;;28.90;94.70;;;;;;4959232;28;20105;-83
2021/06/13 14:12:30;;;;;;;3.50;2.53;;;28.90;94.70;;;;;;4965030;28;20054;-83
2021/06/13 14:14:57;;;;;;;3.55;2.08;;;28.90;94.60;;;;;;4979745;28;20054;-85
2021/06/13 14:17:24;;;;;;;3.00;1.90;;;28.90;94.70;;;;;;4970183;28;20054;-84
2021/06/13 14:19:51;;;;;;;2.33;1.95;;;28.90;94.70;;;;;;4979172;28;20508;-85
2021/06/13 14:22:17;;;;;;;2.28;1.98;;;28.90;94.50;;;;;;4983421;28;20054;-84
2021/06/13 14:24:44;;;;;;;2.63;2.42;;;28.80;94.10;;;;;;4973674;28;20054;-83
2021/06/13 14:27:11;;;;;;;2.15;1.85;;;28.70;93.90;;;;;;4974915;28;20055;-84
2021/06/13 14:29:39;;;;;;;2.10;1.90;;;28.70;93.80;;;;;;4975807;28;20058;-85
2021/06/13 14:32:06;;;;;;;2.25;1.90;;;28.70;94.00;;;;;;4989196;28;20058;-84
2021/06/13 14:34:33;;;;;;;2.67;2.00;;;28.80;94.00;;;;;;4986836;28;20097;-84
2021/06/13 14:37:00;;;;;;;2.22;1.90;;;28.90;93.80;;;;;;4988213;28;20048;-85
2021/06/13 14:39:27;;;;;;;3.47;2.40;;;29.00;93.60;;;;;;4979796;28;20082;-85
2021/06/13 14:41:54;;;;;;;2.20;2.00;;;28.90;92.90;;;;;;4974636;28;20567;-85
2021/06/13 14:44:21;;;;;;;3.00;2.20;;;28.80;92.70;;;;;;4981531;28;20588;-87
2021/06/13 14:46:48;;;;;;;2.17;1.80;;;28.70;92.70;;;;;;4976662;28;20362;-85
2021/06/13 14:49:15;;;;;;;3.05;1.88;;;28.70;92.70;;;;;;4976319;28;20428;-85
2021/06/13 14:51:41;;;;;;;1.80;1.60;;;28.70;92.40;;;;;;4985072;28;20473;-85
2021/06/13 14:54:09;;;;;;;2.65;1.88;;;28.80;91.70;;;;;;4978473;28;20074;-86
2021/06/13 14:56:35;;;;;;;4.25;1.63;;;28.80;90.50;;;;;;4988645;28;20160;-88
2021/06/13 14:59:04;;;;;;;2.97;1.60;;;28.90;90.20;;;;;;4982632;28;20127;-84
2021/06/13 15:01:31;;;;;;;1.90;1.40;;;28.90;89.70;;;;;;4970744;28;20055;-86
2021/06/13 15:04:03;;;;;;;1.90;1.67;;;29.00;88.80;;;;;;4961947;28;20161;-85
2021/06/13 15:06:30;;;;;;;2.63;1.65;;;29.00;87.20;;;;;;4971218;28;20042;-84
2021/06/13 15:08:57;;;;;;;2.47;1.73;;;29.10;88.40;;;;;;4988485;28;20043;-84
2021/06/13 15:11:27;;;;;;;2.38;1.60;;;29.10;89.10;;;;;;4985488;28;20057;-84
2021/06/13 15:13:54;;;;;;;1.75;1.65;;;29.20;89.30;;;;;;4973884;28;20046;-85
2021/06/13 15:16:21;;;;;;;3.35;1.70;;;29.20;89.30;;;;;;4987131;28;20054;-87
2021/06/13 15:18:50;;;;;;;1.85;1.65;;;29.20;88.10;;;;;;4991020;28;20046;-86
2021/06/13 15:21:18;;;;;;;3.92;2.03;;;29.20;89.00;;;;;;4987729;28;20559;-85
2021/06/13 15:23:47;;;;;;;3.63;2.15;;;29.20;90.40;;;;;;4964801;28;20563;-86
2021/06/13 15:26:14;;;;;;;2.30;1.85;;;29.30;90.80;;;;;;4987097;28;20058;-85
2021/06/13 15:28:41;;;;;;;2.35;1.92;;;29.30;90.50;;;;;;4967543;28;20043;-85
2021/06/13 15:31:08;;;;;;;2.20;2.00;;;29.30;90.60;;;;;;4989653;28;20100;-84
2021/06/13 15:33:35;;;;;;;2.63;1.80;;;29.40;90.80;;;;;;4962049;28;20038;-85
2021/06/13 15:36:03;;;;;;;4.28;1.90;;;29.40;90.40;;;;;;4965481;28;20287;-85
2021/06/13 15:38:30;;;;;;;2.30;1.73;;;29.40;90.20;;;;;;4965705;28;20046;-85
2021/06/13 15:40:57;;;;;;;2.30;1.60;;;29.40;90.70;;;;;;4965497;28;20129;-84
2021/06/13 15:43:24;;;;;;;5.60;2.13;;;29.50;90.70;;;;;;4970481;28;20101;-85
2021/06/13 15:45:53;;;;;;;3.53;1.80;;;29.50;90.50;;;;;;4976828;28;20062;-84
2021/06/13 15:48:21;;;;;;;1.92;1.70;;;29.50;90.40;;;;;;4977381;28;20595;-85
2021/06/13 15:50:51;;;;;;;4.28;2.10;;;29.60;90.00;;;;;;4977168;28;20496;-84
2021/06/13 15:53:18;;;;;;;1.90;1.70;;;29.60;88.70;;;;;;5000389;28;20046;-85
2021/06/13 15:55:47;;;;;;;3.17;2.50;;;29.60;88.10;;;;;;4999830;28;20054;-85
2021/06/13 15:58:19;;;;;;;6.38;2.63;;;29.60;86.90;;;;;;4968057;28;20050;-84
2021/06/13 16:00:46;;;;;;;5.05;2.70;;;29.50;90.90;;;;;;4958515;28;20050;-84
2021/06/13 16:03:13;;;;;;;3.85;2.78;;;29.30;91.80;;;;;;4940252;28;20051;-86
2021/06/13 16:05:40;;;;;;;2.50;2.05;;;29.20;92.00;;;;;;4973612;28;20051;-84
2021/06/13 16:08:08;;;;;;;2.25;2.00;;;29.30;92.20;;;;;;4976019;28;20093;-84
2021/06/13 16:10:35;;;;;;;4.10;2.63;;;29.30;92.10;;;;;;4973826;28;20093;-84
2021/06/13 16:13:03;;;;;;;3.28;1.92;;;29.40;92.10;;;;;;4965701;28;20055;-85
2021/06/13 16:15:30;;;;;;;4.15;2.60;;;29.50;92.00;;;;;;4958985;28;20050;-85
2021/06/13 16:17:57;;;;;;;2.55;2.25;;;29.60;92.10;;;;;;4976994;28;20106;-86
2021/06/13 16:20:24;;;;;;;3.67;2.50;;;29.70;91.90;;;;;;4962319;28;23424;-85
2021/06/13 16:22:54;;;;;;;3.38;2.38;;;29.70;91.70;;;;;;4980417;28;20058;-86
2021/06/13 16:25:22;;;;;;;3.05;2.20;;;29.70;91.90;;;;;;4992011;28;20124;-85
2021/06/13 16:27:48;;;;;;;3.50;2.13;;;29.80;92.20;;;;;;4980970;28;20092;-85
2021/06/13 16:30:16;;;;;;;3.75;2.20;;;29.80;92.20;;;;;;4993624;28;20045;-87
2021/06/13 16:32:43;;;;;;;3.97;2.08;;;29.70;92.50;;;;;;4988143;28;20042;-85
2021/06/13 16:35:11;;;;;;;2.97;2.20;;;29.60;92.40;;;;;;4976884;28;20054;-85
2021/06/13 16:37:38;;;;;;;2.20;1.97;;;29.60;92.40;;;;;;4977835;28;20058;-86
2021/06/13 16:40:05;;;;;;;4.10;2.17;;;29.60;92.50;;;;;;5010157;28;20058;-87
2021/06/13 16:42:33;;;;;;;2.90;2.00;;;29.60;92.60;;;;;;4971017;28;20046;-86
2021/06/13 16:45:00;;;;;;;3.22;2.40;;;29.50;92.60;;;;;;4975988;28;20497;-85
2021/06/13 16:47:27;;;;;;;4.13;2.25;;;29.40;92.70;;;;;;4994229;28;20058;-85
2021/06/13 16:49:54;;;;;;;3.70;2.47;;;29.40;92.80;;;;;;4968935;28;20466;-86
2021/06/13 16:52:21;;;;;;;4.75;2.17;;;29.40;92.90;;;;;;4972225;28;20058;-85
2021/06/13 16:54:49;;;;;;;2.78;2.13;;;29.40;92.80;;;;;;4992354;28;20104;-86
2021/06/13 16:57:16;;;;;;;2.90;2.15;;;29.20;93.00;;;;;;4968843;28;20510;-87
2021/06/13 16:59:43;;;;;;;5.28;2.03;;;29.20;93.20;;;;;;4973550;28;20051;-85
2021/06/13 17:02:10;;;;;;;2.72;1.95;;;29.20;93.20;;;;;;4969140;28;20105;-85
2021/06/13 17:04:37;;;;;;;3.03;2.00;;;29.20;93.10;;;;;;4994248;28;20481;-88
2021/06/13 17:07:06;;;;;;;5.45;2.20;;;29.30;92.90;;;;;;4969013;28;20062;-85
2021/06/13 17:09:33;;;;;;;2.67;1.92;;;29.30;92.90;;;;;;4970732;28;20057;-85
2021/06/13 17:12:00;;;;;;;4.15;2.05;;;29.30;92.80;;;;;;4993924;28;20129;-85
2021/06/13 17:14:42;;;;;;;5.88;2.22;;;29.30;92.70;;;;;;4972975;28;20050;-85
2021/06/13 17:17:10;;;;;;;2.35;2.13;;;29.30;92.70;;;;;;4990206;28;20104;-85
2021/06/13 17:19:38;;;;;;;2.58;2.20;;;29.30;92.70;;;;;;4962102;28;20134;-85
2021/06/13 17:22:06;;;;;;;2.95;2.15;;;29.20;92.50;;;;;;4956721;28;20046;-86
2021/06/13 17:24:33;;;;;;;;;;;29.20;92.50;;;;;;4980353;28;20107;-83
2021/06/13 17:27:00;;;;;;;4.78;2.10;;;29.20;92.50;;;;;;4992186;28;19921;-84
2021/06/13 17:29:29;;;;;;;3.90;2.20;;;29.30;92.60;;;;;;4986336;28;20062;-84
2021/06/13 17:31:55;;;;;;;5.53;2.10;;;29.50;92.60;;;;;;4982620;28;20576;-84
2021/06/13 17:34:30;;;;;;;2.63;1.90;;;29.60;92.60;;;;;;4990307;28;20202;-84
2021/06/13 17:37:14;;;;;;;4.35;2.10;;;29.80;92.60;;;;;;4985607;28;20116;-84
2021/06/13 17:39:41;;;;;;;2.67;2.10;;;29.80;92.30;;;;;;4977324;28;20058;-84
2021/06/13 17:42:08;;;;;;;2.58;1.88;;;30.00;92.40;;;;;;4991599;28;20069;-85
2021/06/13 17:44:35;;;;;;;3.72;2.13;;;30.00;92.30;;;;;;4979430;28;20104;-86
2021/06/13 17:47:02;;;;;;;4.53;2.20;;;30.20;92.00;;;;;;4987797;28;20097;-84
2021/06/13 17:49:30;;;;;;;4.60;2.20;;;30.40;92.00;;;;;;5000930;28;20050;-84
2021/06/13 17:51:58;;;;;;;8.68;2.45;;;30.80;92.30;;;;;;4974249;28;20054;-86
2021/06/13 17:54:24;;;;;;;5.72;4.85;;;31.20;91.60;;;;;;4986160;28;20057;-86
2021/06/13 17:56:51;;;;;;;3.95;2.20;;;31.50;91.30;;;;;;4979087;28;20066;-90
2021/06/13 17:59:20;;;;;;;3.22;2.20;;;31.60;90.40;;;;;;4991493;28;20097;-86
2021/06/13 18:01:47;;;;;;;;;;;32.10;90.30;;;;;;4959802;28;20510;-85
2021/06/13 18:04:15;;;;;;;2.63;1.90;;;32.50;89.70;;;;;;4995360;28;20455;-84
2021/06/13 18:06:42;;;;;;;2.42;1.90;;;32.60;89.20;;;;;;4966353;28;20074;-85
2021/06/13 18:09:10;;;;;;;3.67;1.90;;;32.70;88.10;;;;;;4977957;28;20116;-83
2021/06/13 18:11:37;;;;;;;5.15;3.65;;;32.60;88.10;;;;;;5001483;28;20062;-84
2021/06/13 18:14:05;;;;;;;2.55;1.90;;;32.70;87.70;;;;;;5000459;28;20046;-84
2021/06/13 18:16:32;;;;;;;3.25;1.80;;;33.00;87.30;;;;;;4983799;28;20112;-84
2021/06/13 18:19:00;;;;;;;2.38;1.70;;;33.40;86.80;;;;;;5007810;28;20046;-84
2021/06/13 18:21:27;;;;;;;2.78;1.90;;;33.60;85.70;;;;;;4992642;28;20050;-86
2021/06/13 18:23:54;;;;;;;2.80;1.77;;;33.70;84.90;;;;;;4980290;28;20041;-86
2021/06/13 18:26:21;;;;;;;2.50;1.80;;;33.80;84.80;;;;;;4963964;28;20444;-86
2021/06/13 18:28:48;;;;;;;2.37;2.07;;;33.90;84.00;;;;;;4983293;28;20105;-87
2021/06/13 18:31:15;;;;;;;2.10;1.90;;;34.20;83.60;;;;;;4987064;28;20050;-89
2021/06/13 18:33:42;;;;;;;3.88;2.20;;;34.50;83.50;;;;;;4977621;28;20047;-87
2021/06/13 18:36:09;;;;;;;4.20;2.30;;;34.50;83.30;;;;;;4973868;28;20108;-88
2021/06/13 18:38:36;;;;;;;6.90;3.88;;;34.50;83.40;;;;;;4972460;28;20124;-86
2021/06/13 18:41:03;;;;;;;6.07;2.75;;;34.90;83.10;;;;;;4978629;28;20452;-85
2021/06/13 18:43:30;;;;;;;4.20;2.33;;;34.80;82.20;;;;;;4952741;28;20100;-86
2021/06/13 18:45:57;;;;;;;3.53;2.30;;;34.70;82.30;;;;;;4976606;28;20050;-86
2021/06/13 18:48:25;;;;;;;4.32;2.88;;;34.60;81.90;;;;;;4966070;28;20441;-86
2021/06/13 18:50:56;;;;;;;3.58;3.00;;;34.50;81.30;;;;;;4963447;28;20063;-86
2021/06/13 18:53:24;;;;;;;3.83;2.55;;;34.10;81.50;;;;;;4976003;28;20484;-84
2021/06/13 18:55:52;;;;;;;5.00;2.50;;;33.90;81.30;;;;;;4996252;28;20086;-86
2021/06/13 18:58:20;;;;;;;;;;;33.60;82.00;;;;;;4961673;28;20105;-87
2021/06/13 19:00:47;;;;;;;6.45;3.10;;;33.10;81.80;;;;;;4955053;28;19922;-86
2021/06/13 19:03:14;;;;;;;5.35;2.85;;;32.70;82.70;;;;;;4954466;28;20055;-88
2021/06/13 19:05:41;;;;;;;3.60;2.70;;;32.60;82.90;;;;;;4962072;28;20160;-87
2021/06/13 19:08:08;;;;;;;4.82;2.75;;;32.50;83.00;;;;;;4966010;28;20109;-89
2021/06/13 19:10:39;;;;;;;4.53;2.60;;;32.50;83.00;;;;;;4973596;28;20042;-87
2021/06/13 19:13:08;;;;;;;5.00;3.00;;;32.50;83.00;;;;;;4973358;28;20107;-88
2021/06/13 19:15:35;;;;;;;4.65;2.95;;;32.30;82.90;;;;;;4958176;28;20117;-87
2021/06/13 19:18:04;;;;;;;6.22;2.67;;;32.10;83.30;;;;;;4966551;28;20042;-86
2021/06/13 19:20:32;;;;;;;3.63;2.67;;;31.90;83.60;;;;;;4989734;28;20046;-86
2021/06/13 19:22:59;;;;;;;3.13;2.73;;;31.90;83.60;;;;;;4958687;28;20055;-89
2021/06/13 19:25:26;;;;;;;5.40;3.17;;;31.70;83.90;;;;;;4974452;28;20352;-87
2021/06/13 19:27:53;;;;;;;6.05;3.30;;;31.10;84.60;;;;;;4967166;28;20059;-86
2021/06/13 19:30:25;;;;;;;6.32;3.05;;;30.60;85.50;;;;;;4972660;28;20063;-86
2021/06/13 19:32:53;;;;;;;4.20;3.00;;;30.10;86.50;;;;;;4968274;28;20074;-92
2021/06/13 19:35:21;;;;;;;4.03;3.08;;;29.70;87.60;;;;;;4991909;28;20078;-85
2021/06/13 19:37:50;;;;;;;4.15;3.35;;;29.10;89.00;;;;;;5008499;28;20501;-85
2021/06/13 19:40:17;;;;;;;4.22;3.03;;;28.40;90.20;;;;;;4945586;28;20051;-88
2021/06/13 19:42:44;;;;;;;5.13;3.30;;;27.80;90.70;;;;;;4982992;28;20073;-86
2021/06/13 19:45:13;;;;;;;3.92;3.38;;;27.30;91.10;;;;;;4975955;28;20136;-86
2021/06/13 19:47:46;;;;;;;3.97;3.22;;;26.80;91.70;;;;;;4979143;28;20046;-86
2021/06/13 19:50:14;;;;;;;5.43;3.65;;;26.40;92.30;;;;;;4971684;28;20101;-86
2021/06/13 19:52:41;;;;;;;4.20;3.60;;;26.10;92.50;;;;;;4972365;28;20462;-85
2021/06/13 19:55:11;;;;;;;4.68;3.35;;;25.90;92.90;;;;;;4998030;28;20046;-87
2021/06/13 19:57:44;;;;;;;5.00;3.40;;;25.60;93.30;;;;;;4977784;28;20061;-87
2021/06/13 20:00:13;;;;;;;4.53;3.78;;;25.40;93.70;;;;;;4977706;28;20058;-85
2021/06/13 20:02:41;;;;;;;5.95;3.47;;;25.10;94.00;;;;;;4985569;28;20054;-87
2021/06/13 20:05:10;;;;;;;4.90;3.58;;;24.90;94.20;;;;;;4964764;28;20047;-86
2021/06/13 20:07:36;;;;;;;;;;;24.70;94.50;;;;;;4953043;28;20094;-86
2021/06/13 20:10:10;;;;;;;4.03;3.63;;;24.40;95.30;;;;;;4956099;28;19941;-84
2021/06/13 20:12:38;;;;;;;6.57;3.83;;;24.30;95.20;;;;;;4962733;28;20492;-86
2021/06/13 20:15:07;;;;;;;5.85;3.50;;;24.10;95.40;;;;;;4946859;28;20113;-88
2021/06/13 20:17:34;;;;;;;4.80;3.63;;;24.00;95.80;;;;;;4964560;28;20124;-86
2021/06/13 20:20:03;;;;;;;5.97;3.45;;;23.90;96.00;;;;;;4973268;28;20050;-85
2021/06/13 20:22:30;;;;;;;4.38;3.40;;;23.70;96.30;;;;;;4962262;28;20050;-84
2021/06/13 20:24:57;;;;;;;6.15;3.90;;;23.60;96.40;;;;;;4977421;28;20059;-85
2021/06/13 20:27:24;;;;;;;5.68;4.45;;;23.60;96.50;;;;;;4980876;28;20166;-86
2021/06/13 20:29:52;;;;;;;5.38;4.00;;;23.40;96.70;;;;;;4971694;28;20508;-84
2021/06/13 20:32:20;;;;;;;6.28;4.20;;;23.40;96.90;;;;;;4963482;28;20411;-84
2021/06/13 20:34:47;;;;;;;4.82;3.80;;;23.30;97.00;;;;;;4956200;28;20502;-84